createdAt,value
2018-01-16T00:02:01.271Z,11.82
2018-01-16T00:04:28.017Z,11.50
2018-01-16T00:07:00.689Z,11.70
2018-01-16T00:09:27.909Z,12.15
2018-01-16T00:11:54.695Z,11.50
2018-01-16T00:14:21.306Z,11.68
2018-01-16T00:16:47.748Z,11.35
2018-01-16T00:19:14.534Z,11.63
2018-01-16T00:21:41.082Z,11.00
2018-01-16T00:24:07.568Z,10.50
2018-01-16T00:26:34.026Z,10.90
2018-01-16T00:29:01.571Z,10.60
2018-01-16T00:31:28.099Z,10.52
2018-01-16T00:33:55.331Z,10.20
2018-01-16T00:36:21.850Z,10.18
2018-01-16T00:38:53.370Z,9.95
2018-01-16T02:22:23.731Z,7.90
2018-01-16T02:24:50.265Z,8.52
2018-01-16T02:27:16.732Z,7.50
2018-01-16T02:29:43.248Z,7.43
2018-01-16T02:32:10.547Z,7.82
2018-01-16T02:34:38.074Z,7.90
2018-01-16T02:37:04.691Z,8.15
2018-01-16T02:39:31.968Z,7.85
2018-01-16T02:41:59.343Z,7.50
2018-01-16T02:44:26.821Z,8.00
2018-01-16T02:46:54.163Z,7.65
2018-01-16T02:49:21.576Z,8.15
2018-01-16T02:51:48.236Z,7.72
2018-01-16T02:54:15.047Z,8.15
2018-01-16T02:56:42.280Z,7.28
2018-01-16T02:59:09.084Z,8.13
2018-01-16T03:01:35.696Z,7.97
2018-01-16T03:04:02.800Z,8.18
2018-01-16T03:06:29.603Z,8.50
2018-01-16T03:08:56.187Z,8.40
2018-01-16T03:11:23.462Z,7.90
2018-01-16T03:13:50.990Z,7.70
2018-01-16T03:16:17.624Z,7.12
2018-01-16T03:18:44.496Z,7.70
2018-01-16T03:21:11.153Z,6.70
2018-01-16T03:23:37.687Z,7.20
2018-01-16T03:26:04.149Z,6.62
2018-01-16T03:28:30.701Z,6.50
2018-01-16T03:30:57.895Z,6.50
2018-01-16T03:33:24.674Z,6.50
2018-01-16T03:35:51.682Z,6.05
2018-01-16T03:38:18.266Z,5.90
2018-01-16T03:40:45.450Z,5.80
2018-01-16T03:43:11.994Z,6.00
2018-01-16T03:45:38.614Z,5.80
2018-01-16T03:48:05.799Z,5.90
2018-01-16T03:50:33.208Z,5.80
2018-01-16T03:52:59.794Z,5.80
2018-01-16T03:55:26.319Z,5.65
2018-01-16T03:57:53.596Z,6.10
2018-01-16T04:00:21.402Z,5.85
2018-01-16T04:02:48.003Z,5.70
2018-01-16T04:05:15.244Z,5.90
2018-01-16T04:07:41.770Z,5.80
2018-01-16T04:10:09.129Z,5.10
2018-01-16T04:12:35.591Z,5.78
2018-01-16T04:15:02.882Z,5.20
2018-01-16T04:17:29.868Z,5.07
2018-01-16T04:19:56.517Z,4.80
2018-01-16T04:22:23.064Z,5.05
2018-01-16T04:24:49.623Z,4.30
2018-01-16T04:27:16.827Z,4.60
2018-01-16T04:29:43.475Z,4.70
2018-01-16T04:32:10.013Z,3.87
2018-01-16T04:34:37.287Z,3.90
2018-01-16T04:37:03.846Z,4.00
2018-01-16T04:39:30.655Z,4.00
2018-01-16T04:41:57.292Z,4.20
2018-01-16T04:44:24.072Z,3.78
2018-01-16T04:49:19.137Z,3.40
2018-01-16T04:51:45.651Z,3.67
2018-01-16T04:54:12.087Z,3.80
2018-01-16T04:56:38.665Z,3.60
2018-01-16T04:59:05.902Z,3.50
2018-01-16T05:01:32.371Z,3.47
2018-01-16T05:03:59.592Z,3.30
2018-01-16T05:06:26.077Z,3.10
2018-01-16T05:08:52.685Z,2.95
2018-01-16T05:11:19.937Z,3.00
2018-01-16T05:13:46.397Z,3.40
2018-01-16T05:16:13.689Z,2.80
2018-01-16T05:18:40.950Z,2.70
2018-01-16T05:21:08.150Z,2.80
2018-01-16T05:23:34.974Z,3.20
2018-01-16T05:26:01.434Z,3.15
2018-01-16T05:28:28.731Z,3.80
2018-01-16T05:30:55.961Z,3.30
2018-01-16T05:33:22.524Z,3.50
2018-01-16T05:35:49.010Z,3.10
2018-01-16T05:38:16.293Z,3.37
2018-01-16T05:40:43.517Z,2.70
2018-01-16T05:43:10.024Z,2.45
2018-01-16T05:45:37.402Z,2.87
2018-01-16T05:48:06.216Z,2.60
2018-01-16T05:50:32.750Z,2.78
2018-01-16T05:52:59.224Z,2.70
2018-01-16T05:55:30.282Z,2.50
2018-01-16T05:57:57.557Z,2.80
2018-01-16T06:00:24.115Z,2.40
2018-01-16T06:02:51.389Z,2.50
2018-01-16T06:05:21.714Z,2.20
2018-01-16T06:07:48.168Z,2.25
2018-01-16T06:10:14.746Z,2.50
2018-01-16T06:12:41.226Z,2.60
2018-01-16T06:15:08.750Z,2.75
2018-01-16T06:17:35.343Z,2.60
2018-01-16T06:20:01.902Z,2.70
2018-01-16T06:22:28.461Z,3.03
2018-01-16T06:25:01.255Z,3.10
2018-01-16T06:27:28.530Z,2.37
2018-01-16T06:29:54.994Z,1.70
2018-01-16T06:32:21.544Z,1.92
2018-01-16T06:34:48.740Z,1.60
2018-01-16T06:37:15.273Z,1.60
2018-01-16T06:39:41.832Z,1.83
2018-01-16T06:42:08.345Z,1.85
2018-01-16T06:44:38.835Z,1.90
2018-01-16T06:47:06.065Z,1.90
2018-01-16T06:49:32.559Z,1.80
2018-01-16T06:52:02.907Z,1.80
2018-01-16T06:54:30.184Z,1.83
2018-01-16T06:56:56.638Z,2.30
2018-01-16T06:59:23.831Z,2.50
2018-01-16T07:01:54.257Z,2.45
2018-01-16T07:04:20.814Z,3.35
2018-01-16T07:06:47.373Z,3.58
2018-01-16T07:09:13.978Z,4.05
2018-01-16T07:11:40.713Z,5.40
2018-01-16T07:14:07.540Z,3.50
2018-01-16T07:16:34.296Z,3.00
2018-01-16T07:19:01.238Z,3.00
2018-01-16T07:21:34.231Z,2.90
2018-01-16T07:24:00.967Z,2.72
2018-01-16T07:26:27.795Z,3.12
2018-01-16T07:28:54.545Z,4.30
2018-01-16T07:31:25.791Z,3.80
2018-01-16T07:33:52.532Z,2.50
2018-01-16T07:36:20.191Z,2.95
2018-01-16T07:38:47.234Z,3.17
2018-01-16T07:41:14.694Z,3.00
2018-01-16T07:43:41.434Z,2.70
2018-01-16T07:46:15.649Z,3.80
2018-01-16T07:48:42.285Z,2.20
2018-01-16T07:51:10.050Z,3.20
2018-01-16T07:53:37.883Z,2.95
2018-01-16T07:56:04.374Z,3.30
2018-01-16T07:58:31.105Z,3.50
2018-01-16T08:00:57.651Z,3.70
2018-01-16T08:03:28.558Z,5.85
2018-01-16T08:05:56.104Z,3.10
2018-01-16T08:08:22.860Z,3.70
2018-01-16T08:10:49.691Z,2.90
2018-01-16T08:13:20.227Z,2.65
2018-01-16T08:15:47.665Z,2.08
2018-01-16T08:18:14.319Z,1.90
2018-01-16T08:20:40.957Z,1.70
2018-01-16T08:23:07.826Z,2.10
2018-01-16T08:25:34.434Z,1.92
2018-01-16T08:28:02.096Z,2.00
2018-01-16T08:30:28.732Z,2.12
2018-01-16T08:32:55.370Z,3.50
2018-01-16T08:35:22.723Z,3.40
2018-01-16T08:37:49.463Z,3.20
2018-01-16T08:40:21.324Z,1.80
2018-01-16T08:42:48.268Z,1.80
2018-01-16T08:45:15.402Z,2.80
2018-01-16T08:47:42.156Z,2.30
2018-01-16T08:50:08.997Z,2.10
2018-01-16T08:52:37.683Z,2.10
2018-01-16T08:55:04.933Z,3.15
2018-01-16T08:57:31.467Z,2.40
2018-01-16T08:59:58.765Z,1.70
2018-01-16T09:02:29.356Z,2.20
2018-01-16T09:04:56.092Z,1.80
2018-01-16T09:07:23.022Z,2.53
2018-01-16T09:09:49.978Z,1.87
2018-01-16T09:12:17.844Z,1.55
2018-01-16T09:14:44.686Z,1.90
2018-01-16T09:17:11.571Z,1.20
2018-01-16T09:19:38.428Z,0.90
2018-01-16T09:22:09.511Z,1.20
2018-01-16T09:24:36.661Z,1.40
2018-01-16T09:27:03.299Z,1.20
2018-01-16T09:29:30.248Z,1.10
2018-01-16T09:31:57.472Z,1.50
2018-01-16T09:34:24.438Z,1.70
2018-01-16T09:36:51.975Z,1.40
2018-01-16T09:39:21.401Z,1.50
2018-01-16T09:41:48.201Z,1.62
2018-01-16T09:44:15.531Z,1.90
2018-01-16T09:46:44.062Z,1.75
2018-01-16T09:49:11.408Z,1.80
2018-01-16T09:51:38.072Z,1.95
2018-01-16T09:54:04.536Z,1.77
2018-01-16T09:56:31.287Z,1.90
2018-01-16T09:58:58.687Z,3.20
2018-01-16T10:01:25.469Z,2.35
2018-01-16T10:03:51.986Z,2.58
2018-01-16T10:06:18.645Z,1.10
2018-01-16T10:08:46.230Z,7.95
2018-01-16T10:11:12.768Z,4.53
2018-01-16T10:13:39.549Z,2.10
2018-01-16T10:16:06.826Z,0.65
2018-01-16T10:18:35.947Z,0.70
2018-01-16T10:21:03.035Z,0.70
2018-01-16T10:23:31.999Z,0.65
2018-01-16T10:25:59.477Z,0.70
2018-01-16T10:28:26.161Z,3.70
2018-01-16T10:30:53.745Z,5.00
2018-01-16T10:33:20.582Z,1.50
2018-01-16T10:35:47.885Z,1.40
2018-01-16T10:38:15.157Z,8.10
2018-01-16T10:40:41.936Z,4.70
2018-01-16T10:43:08.583Z,4.50
2018-01-16T10:45:35.139Z,3.42
2018-01-16T10:48:01.599Z,6.12
2018-01-16T10:50:28.261Z,6.95
2018-01-16T10:52:54.916Z,4.55
2018-01-16T10:55:21.474Z,3.50
2018-01-16T10:57:48.237Z,3.60
2018-01-16T11:00:14.742Z,3.22
2018-01-16T11:02:41.251Z,3.05
2018-01-16T11:05:07.928Z,2.80
2018-01-16T11:07:34.643Z,3.20
2018-01-16T11:10:02.160Z,1.00
2018-01-16T11:12:29.553Z,1.98
2018-01-16T11:14:56.088Z,2.90
2018-01-16T11:17:23.284Z,1.25
2018-01-16T11:19:49.803Z,1.30
2018-01-16T11:22:16.273Z,1.33
2018-01-16T11:24:43.452Z,0.98
2018-01-16T11:27:10.361Z,0.82
2018-01-16T11:29:37.075Z,0.80
2018-01-16T11:32:03.837Z,1.02
2018-01-16T11:34:31.028Z,1.10
2018-01-16T11:36:57.878Z,0.90
2018-01-16T11:39:24.528Z,0.70
2018-01-16T11:41:51.896Z,0.80
2018-01-16T11:44:19.187Z,0.70
2018-01-16T11:46:46.481Z,0.70
2018-01-16T11:49:14.145Z,0.80
2018-01-16T11:51:41.417Z,0.90
2018-01-16T11:54:08.800Z,0.80
2018-01-16T11:56:35.596Z,0.70
2018-01-16T11:59:02.446Z,1.10
2018-01-16T12:01:29.186Z,2.10
2018-01-16T12:03:56.630Z,0.95
2018-01-16T12:06:24.252Z,0.90
2018-01-16T12:08:50.805Z,0.90
2018-01-16T12:11:18.077Z,0.70
2018-01-16T12:13:45.263Z,0.90
2018-01-16T12:16:12.011Z,1.10
2018-01-16T12:18:39.838Z,0.90
2018-01-16T12:21:06.575Z,1.00
2018-01-16T12:23:34.224Z,1.30
2018-01-16T12:26:00.976Z,1.00
2018-01-16T12:28:27.716Z,1.10
2018-01-16T12:30:54.661Z,1.17
2018-01-16T12:33:21.604Z,1.10
2018-01-16T12:35:48.877Z,1.50
2018-01-16T12:38:15.537Z,4.62
2018-01-16T12:40:43.229Z,4.80
2018-01-16T12:43:09.882Z,4.03
2018-01-16T12:45:36.440Z,14.45
2018-01-16T12:48:03.957Z,3.67
2018-01-16T12:50:30.472Z,4.65
2018-01-16T12:52:57.082Z,1.80
2018-01-16T12:55:23.595Z,3.40
2018-01-16T12:57:50.878Z,2.37
2018-01-16T13:00:17.449Z,1.40
2018-01-16T13:02:43.986Z,3.00
2018-01-16T13:05:10.748Z,1.60
2018-01-16T13:07:37.290Z,1.50
2018-01-16T13:10:04.503Z,1.70
2018-01-16T13:12:31.037Z,1.00
2018-01-16T13:14:57.594Z,0.80
2018-01-16T13:17:25.177Z,1.00
2018-01-16T13:19:52.449Z,0.90
2018-01-16T13:22:19.723Z,1.42
2018-01-16T13:24:46.671Z,0.90
2018-01-16T13:27:13.557Z,1.00
2018-01-16T13:29:40.118Z,1.20
2018-01-16T13:32:06.674Z,0.90
2018-01-16T13:34:33.879Z,0.90
2018-01-16T13:37:00.510Z,0.70
2018-01-16T13:39:27.065Z,0.90
2018-01-16T13:41:54.363Z,1.20
2018-01-16T13:44:20.897Z,0.80
2018-01-16T13:46:47.744Z,1.20
2018-01-16T13:49:14.382Z,0.90
2018-01-16T13:51:40.888Z,1.00
2018-01-16T13:54:07.402Z,0.77
2018-01-16T13:56:34.260Z,0.80
2018-01-16T13:59:01.805Z,0.80
2018-01-16T14:01:28.369Z,0.80
2018-01-16T14:03:54.873Z,1.08
2018-01-16T14:06:22.010Z,1.15
2018-01-16T14:08:49.344Z,1.40
2018-01-16T14:11:16.772Z,2.58
2018-01-16T14:13:43.492Z,5.78
2018-01-16T14:16:10.144Z,1.48
2018-01-16T14:18:36.688Z,2.40
2018-01-16T14:21:03.465Z,2.70
2018-01-16T14:23:30.739Z,6.27
2018-01-16T14:25:57.922Z,3.73
2018-01-16T14:28:24.475Z,14.50
2018-01-16T14:30:51.718Z,3.20
2018-01-16T14:33:18.302Z,5.13
2018-01-16T14:35:45.578Z,2.08
2018-01-16T14:38:12.882Z,3.25
2018-01-16T14:40:39.664Z,1.20
2018-01-16T14:43:07.241Z,1.55
2018-01-16T14:45:34.006Z,1.00
2018-01-16T14:48:00.628Z,1.60
2018-01-16T14:50:27.184Z,33.13
2018-01-16T14:52:54.195Z,10.73
2018-01-16T14:55:21.604Z,6.65
2018-01-16T14:57:48.102Z,5.55
2018-01-16T15:00:15.099Z,9.23
2018-01-16T15:02:43.165Z,13.82
2018-01-16T15:05:09.801Z,10.52
2018-01-16T15:07:37.734Z,8.25
2018-01-16T15:10:04.256Z,36.90
2018-01-16T15:12:30.767Z,18.20
2018-01-16T15:14:57.820Z,16.08
2018-01-16T15:17:24.668Z,23.30
2018-01-16T15:19:52.110Z,28.90
2018-01-16T15:22:18.800Z,27.30
2018-01-16T15:24:45.436Z,67.50
2018-01-16T15:27:12.545Z,38.33
2018-01-16T15:29:42.337Z,12.98
2018-01-16T15:32:10.273Z,1.83
2018-01-16T15:34:37.738Z,27.13
2018-01-16T15:37:04.526Z,12.77
2018-01-16T15:39:34.257Z,14.43
2018-01-16T15:42:00.960Z,3.83
2018-01-16T15:44:28.726Z,5.80
2018-01-16T15:46:55.610Z,1.73
2018-01-16T15:49:22.557Z,1.50
2018-01-16T15:51:50.135Z,1.20
2018-01-16T15:54:16.647Z,1.60
2018-01-16T15:56:43.377Z,1.30
2018-01-16T15:59:10.040Z,1.60
2018-01-16T16:01:37.852Z,1.20
2018-01-16T16:04:04.587Z,1.20
2018-01-16T16:06:32.988Z,1.40
2018-01-16T16:08:59.841Z,1.15
2018-01-16T16:11:27.151Z,1.40
2018-01-16T16:13:54.093Z,1.50
2018-01-16T16:16:20.959Z,3.47
2018-01-16T16:18:47.500Z,2.30
2018-01-16T16:21:14.381Z,2.62
2018-01-16T16:23:41.424Z,1.83
2018-01-16T16:26:08.008Z,1.60
2018-01-16T16:28:36.402Z,1.60
2018-01-16T16:31:02.925Z,1.87
2018-01-16T16:33:30.447Z,2.00
2018-01-16T16:35:57.215Z,1.70
2018-01-16T16:38:23.824Z,1.90
2018-01-16T16:40:50.430Z,1.73
2018-01-16T16:43:16.939Z,1.80
2018-01-16T16:45:44.458Z,2.00
2018-01-16T16:48:11.162Z,2.12
2018-01-16T16:50:38.094Z,2.80
2018-01-16T16:53:04.561Z,2.90
2018-01-16T16:55:31.107Z,2.20
2018-01-16T16:57:58.822Z,3.15
2018-01-16T17:00:25.593Z,2.90
2018-01-16T17:02:52.285Z,2.20
2018-01-16T17:05:19.778Z,2.62
2018-01-16T17:07:46.354Z,2.80
2018-01-16T17:10:12.912Z,2.70
2018-01-16T17:12:39.644Z,2.90
2018-01-16T17:15:08.075Z,2.35
2018-01-16T17:17:35.358Z,2.40
2018-01-16T17:20:01.824Z,2.42
2018-01-16T17:22:28.363Z,2.70
2018-01-16T17:24:55.602Z,2.80
2018-01-16T17:27:22.096Z,2.40
2018-01-16T17:29:48.652Z,2.00
2018-01-16T17:32:15.895Z,2.28
2018-01-16T17:34:42.428Z,2.87
2018-01-16T17:37:08.945Z,1.90
2018-01-16T17:39:35.499Z,2.45
2018-01-16T17:42:02.779Z,2.73
2018-01-16T17:44:29.433Z,2.80
2018-01-16T17:46:56.640Z,1.87
2018-01-16T17:49:23.147Z,2.00
2018-01-16T17:51:50.438Z,2.45
2018-01-16T17:54:16.999Z,2.72
2018-01-16T17:56:43.555Z,7.70
2018-01-16T17:59:10.829Z,2.40
2018-01-16T18:01:38.004Z,5.43
2018-01-16T18:04:05.355Z,30.73
2018-01-16T18:06:32.651Z,29.40
2018-01-16T18:09:00.538Z,4.60
2018-01-16T18:11:27.799Z,3.05
2018-01-16T18:13:55.090Z,2.10
2018-01-16T18:16:22.404Z,2.20
2018-01-16T18:18:49.030Z,2.25
2018-01-16T18:21:15.539Z,2.70
2018-01-16T18:23:42.139Z,3.55
2018-01-16T18:26:09.516Z,4.40
2018-01-16T18:28:36.790Z,3.58
2018-01-16T18:31:04.064Z,2.70
2018-01-16T18:33:31.338Z,3.58
2018-01-16T18:35:58.612Z,6.60
2018-01-16T18:38:26.092Z,8.52
2018-01-16T18:40:53.368Z,2.40
2018-01-16T18:43:20.641Z,6.10
2018-01-16T18:45:47.915Z,5.60
2018-01-16T18:48:15.134Z,4.60
2018-01-16T18:50:41.747Z,2.60
2018-01-16T18:53:09.022Z,5.15
2018-01-16T18:55:36.399Z,2.72
2018-01-16T18:58:03.630Z,2.80
2018-01-16T19:00:30.338Z,2.00
2018-01-16T19:02:56.873Z,2.30
2018-01-16T19:05:24.165Z,2.83
2018-01-16T19:07:51.365Z,2.40
2018-01-16T19:10:17.997Z,2.15
2018-01-16T19:12:46.153Z,2.42
2018-01-16T19:15:12.626Z,2.20
2018-01-16T19:17:39.206Z,2.20
2018-01-16T19:20:06.436Z,2.50
2018-01-16T19:22:33.495Z,2.30
2018-01-16T19:25:00.109Z,2.30
2018-01-16T19:27:27.487Z,2.08
2018-01-16T19:29:54.866Z,2.30
2018-01-16T19:32:22.142Z,2.00
2018-01-16T19:34:48.628Z,2.28
2018-01-16T19:37:15.260Z,1.85
2018-01-16T19:39:41.816Z,2.55
2018-01-16T19:42:08.370Z,3.15
2018-01-16T19:44:35.556Z,2.60
2018-01-16T19:47:02.101Z,2.92
2018-01-16T19:49:29.477Z,2.13
2018-01-16T19:51:56.961Z,1.98
2018-01-16T19:54:23.513Z,2.00
2018-01-16T19:56:50.715Z,2.10
2018-01-16T19:59:17.182Z,1.75
2018-01-16T20:01:44.626Z,1.70
2018-01-16T20:04:11.136Z,1.90
2018-01-16T20:06:37.737Z,1.90
2018-01-16T20:09:04.356Z,1.80
2018-01-16T20:11:33.832Z,1.83
2018-01-16T20:14:00.317Z,2.00
2018-01-16T20:16:26.939Z,2.10
2018-01-16T20:18:54.315Z,1.92
2018-01-16T20:21:21.576Z,2.30
2018-01-16T20:23:48.866Z,2.20
2018-01-16T20:26:15.422Z,2.10
2018-01-16T20:28:42.690Z,2.40
2018-01-16T20:31:10.077Z,2.10
2018-01-16T20:33:36.633Z,1.90
2018-01-16T20:36:03.826Z,2.10
2018-01-16T20:38:30.412Z,2.08
2018-01-16T20:40:57.026Z,2.20
2018-01-16T20:43:23.499Z,2.30
2018-01-16T20:45:50.041Z,2.00
2018-01-16T20:48:16.504Z,2.00
2018-01-16T20:50:43.050Z,2.20
2018-01-16T20:53:10.264Z,2.30
2018-01-16T20:55:36.885Z,2.50
2018-01-16T20:58:04.119Z,2.28
2018-01-16T21:00:30.625Z,2.58
2018-01-16T21:02:57.081Z,2.15
2018-01-16T21:05:23.517Z,2.50
2018-01-16T21:07:50.800Z,2.10
2018-01-16T21:10:18.512Z,2.50
2018-01-16T21:12:47.142Z,2.58
2018-01-16T21:15:13.753Z,2.50
2018-01-16T21:17:40.309Z,3.80
2018-01-16T21:20:07.582Z,2.60
2018-01-16T21:22:34.862Z,2.30
2018-01-16T21:25:01.312Z,2.30
2018-01-16T21:27:28.588Z,2.40
2018-01-16T21:29:55.787Z,2.10
2018-01-16T21:32:22.420Z,2.30
2018-01-16T21:34:48.980Z,2.40
2018-01-16T21:37:17.621Z,2.80
2018-01-16T21:39:44.083Z,2.40
2018-01-16T21:42:11.225Z,2.30
2018-01-16T21:44:37.771Z,2.30
2018-01-16T21:47:05.123Z,2.10
2018-01-16T21:49:31.577Z,2.40
2018-01-16T21:51:58.039Z,2.35
2018-01-16T21:54:24.616Z,2.10
2018-01-16T21:56:51.892Z,2.40
2018-01-16T21:59:18.449Z,2.15
2018-01-16T22:01:45.723Z,2.40
2018-01-16T22:04:13.528Z,2.50
2018-01-16T22:06:40.093Z,3.10
2018-01-16T22:09:07.155Z,2.80
2018-01-16T22:11:33.606Z,2.85
2018-01-16T22:14:00.149Z,3.50
2018-01-16T22:16:30.084Z,3.03
2018-01-16T22:18:57.564Z,2.60
2018-01-16T22:21:25.494Z,2.50
2018-01-16T22:23:52.111Z,2.60
2018-01-16T22:26:19.311Z,2.90
2018-01-16T22:28:45.945Z,3.47
2018-01-16T22:31:12.502Z,3.10
2018-01-16T22:33:39.748Z,3.30
2018-01-16T22:36:06.334Z,3.20
2018-01-16T22:38:33.530Z,3.00
2018-01-16T22:41:00.066Z,3.20
2018-01-16T22:43:27.909Z,3.40
2018-01-16T22:45:54.481Z,3.85
2018-01-16T22:48:21.074Z,3.60
2018-01-16T22:50:47.627Z,3.80
2018-01-16T22:53:14.902Z,3.60
2018-01-16T22:55:42.178Z,4.20
2018-01-16T22:58:09.452Z,3.97
2018-01-16T23:00:36.010Z,4.62
2018-01-16T23:03:03.243Z,4.37
2018-01-16T23:05:29.814Z,4.85
2018-01-16T23:07:56.300Z,4.53
2018-01-16T23:10:22.857Z,5.00
2018-01-16T23:12:50.657Z,4.60
2018-01-16T23:15:17.199Z,5.00
2018-01-16T23:17:44.391Z,5.07
2018-01-16T23:20:10.931Z,5.03
2018-01-16T23:22:37.492Z,5.40
2018-01-16T23:25:04.047Z,5.60
2018-01-16T23:27:31.928Z,5.60
2018-01-16T23:29:59.210Z,5.47
2018-01-16T23:32:26.482Z,5.40
2018-01-16T23:34:53.759Z,6.00
2018-01-16T23:37:20.275Z,6.03
2018-01-16T23:39:46.745Z,6.40
2018-01-16T23:42:13.332Z,6.20
2018-01-16T23:44:39.786Z,6.25
2018-01-16T23:47:07.166Z,6.30
2018-01-16T23:49:33.622Z,6.95
2018-01-16T23:52:00.094Z,6.28
2018-01-16T23:54:26.587Z,6.07
2018-01-16T23:56:53.094Z,5.75
2018-01-16T23:59:21.791Z,5.30
